Time;durP1;ratioP1;P1;durP2;ratioP2;P2;SDS_P1;SDS_P2;PMS_P1;PMS_P2;Temp;Humidity;BMP_temperature;BMP_pressure;BME280_temperature;BME280_humidity;BME280_pressure;Samples;Min_cycle;Max_cycle;Signal;HPM_P1;HPM_P2
2023/10/12 00:02:04;;;;;;;0.00;0.00;;;14.80;99.90;;;;;;5091672;28;20180;-58
2023/10/12 00:04:39;;;;;;;0.00;0.00;;;14.80;99.90;;;;;;5091596;28;20183;-58
2023/10/12 00:07:14;;;;;;;0.00;0.00;;;14.70;99.90;;;;;;5091268;28;20367;-58
2023/10/12 00:09:40;;;;;;;0.00;0.00;;;14.70;99.90;;;;;;5090021;28;20183;-59
2023/10/12 00:12:08;;;;;;;0.00;0.00;;;14.70;99.90;;;;;;5091573;28;20177;-59
2023/10/12 00:14:35;;;;;;;0.00;0.00;;;14.70;99.90;;;;;;5091177;28;20180;-60
2023/10/12 00:17:01;;;;;;;0.00;0.00;;;14.60;99.90;;;;;;5091474;28;20188;-60
2023/10/12 00:19:27;;;;;;;0.00;0.00;;;14.60;99.90;;;;;;5091344;28;20665;-59
2023/10/12 00:21:59;;;;;;;0.00;0.00;;;14.60;99.90;;;;;;5090713;28;20183;-59
2023/10/12 00:24:25;;;;;;;0.00;0.00;;;14.60;99.90;;;;;;5091387;28;20540;-59
2023/10/12 00:26:50;;;;;;;0.00;0.00;;;14.50;99.90;;;;;;5090756;28;20241;-59
2023/10/12 00:29:18;;;;;;;0.17;0.17;;;14.50;99.90;;;;;;5090976;28;20188;-58
2023/10/12 00:31:45;;;;;;;0.00;0.00;;;14.50;99.90;;;;;;5090785;28;20180;-59
2023/10/12 00:34:14;;;;;;;0.65;0.65;;;14.50;99.90;;;;;;5090965;28;20180;-60
2023/10/12 00:36:41;;;;;;;0.00;0.00;;;14.50;99.90;;;;;;5090433;28;20182;-59
2023/10/12 00:39:09;;;;;;;0.03;0.03;;;14.50;99.90;;;;;;5090811;28;20215;-59
2023/10/12 00:41:44;;;;;;;0.00;0.00;;;14.50;99.90;;;;;;5090740;28;20183;-59
2023/10/12 00:44:12;;;;;;;0.00;0.00;;;14.50;99.90;;;;;;5085998;28;20180;-59
2023/10/12 00:47:12;;;;;;;0.00;0.00;;;14.50;99.90;;;;;;5090806;28;20208;-59
2023/10/12 00:49:30;;;;;;;0.00;0.00;;;14.50;99.90;;;;;;5090751;28;20529;-60
2023/10/12 00:52:22;;;;;;;0.00;0.00;;;14.50;99.90;;;;;;5090308;28;20285;-59
2023/10/12 00:54:55;;;;;;;0.05;0.03;;;14.50;99.90;;;;;;5093056;28;20176;-59
2023/10/12 00:57:22;;;;;;;0.00;0.00;;;14.50;99.90;;;;;;5094897;28;20659;-59
2023/10/12 00:59:51;;;;;;;0.00;0.00;;;14.40;99.90;;;;;;5092747;28;20195;-58
2023/10/12 01:02:21;;;;;;;0.00;0.00;;;14.40;99.90;;;;;;5080374;28;20180;-58
2023/10/12 01:04:48;;;;;;;0.15;0.15;;;14.40;99.90;;;;;;5094660;28;20180;-59
2023/10/12 01:07:20;;;;;;;0.00;0.00;;;14.30;99.90;;;;;;5094280;28;20226;-58
2023/10/12 01:09:49;;;;;;;0.00;0.00;;;14.30;99.90;;;;;;5094294;28;20187;-59
2023/10/12 01:12:14;;;;;;;0.00;0.00;;;14.30;99.90;;;;;;5094420;28;20192;-59
2023/10/12 01:14:47;;;;;;;0.08;0.08;;;14.20;99.90;;;;;;5094494;28;20179;-58
2023/10/12 01:17:17;;;;;;;0.00;0.00;;;14.20;99.90;;;;;;5094610;28;20714;-58
2023/10/12 01:19:47;;;;;;;0.00;0.00;;;14.20;99.90;;;;;;5093405;28;20184;-59
2023/10/12 01:22:25;;;;;;;0.05;0.03;;;14.20;99.90;;;;;;5093019;28;20216;-58
2023/10/12 01:27:21;;;;;;;0.00;0.00;;;14.10;99.90;;;;;;5094540;28;20261;-58
2023/10/12 01:29:50;;;;;;;0.00;0.00;;;14.10;99.90;;;;;;5093960;28;20215;-59
2023/10/12 01:34:52;;;;;;;0.00;0.00;;;14.00;99.90;;;;;;5093909;28;20234;-59
2023/10/12 01:37:22;;;;;;;0.00;0.00;;;14.00;99.90;;;;;;5094432;28;20556;-59
2023/10/12 01:40:07;;;;;;;0.00;0.00;;;14.00;99.90;;;;;;5093378;28;20220;-59
2023/10/12 01:45:31;;;;;;;0.00;0.00;;;13.90;99.90;;;;;;5094261;28;20172;-59
2023/10/12 01:48:07;;;;;;;0.00;0.00;;;13.90;99.90;;;;;;5093604;28;20215;-59
2023/10/12 01:50:33;;;;;;;0.00;0.00;;;13.90;99.90;;;;;;5093805;28;20184;-59
2023/10/12 01:53:00;;;;;;;0.00;0.00;;;13.90;99.90;;;;;;5093957;28;20210;-59
2023/10/12 01:55:30;;;;;;;0.10;0.10;;;13.90;99.90;;;;;;5093959;28;20180;-59
2023/10/12 01:57:56;;;;;;;0.10;0.10;;;13.90;99.90;;;;;;5093741;28;20214;-59
2023/10/12 02:00:27;;;;;;;0.00;0.00;;;13.80;99.90;;;;;;5093999;28;20275;-60
2023/10/12 02:03:02;;;;;;;0.00;0.00;;;13.80;99.90;;;;;;5093901;28;20332;-59
2023/10/12 02:05:31;;;;;;;0.00;0.00;;;13.80;99.90;;;;;;5093302;28;20191;-59
2023/10/12 02:07:58;;;;;;;0.00;0.00;;;13.80;99.90;;;;;;5093327;28;20298;-59
2023/10/12 02:10:25;;;;;;;0.05;0.05;;;13.80;99.90;;;;;;5093739;28;20180;-59
2023/10/12 02:12:53;;;;;;;0.00;0.00;;;13.70;99.90;;;;;;5093437;28;20184;-59
2023/10/12 02:15:21;;;;;;;0.08;0.08;;;13.70;99.90;;;;;;5093519;28;20537;-59
2023/10/12 02:17:50;;;;;;;0.00;0.00;;;13.70;99.90;;;;;;5093369;28;20280;-59
2023/10/12 02:20:18;;;;;;;0.10;0.10;;;13.70;99.90;;;;;;5089040;28;20169;-59
2023/10/12 02:22:46;;;;;;;0.00;0.00;;;13.60;99.90;;;;;;5093008;28;20271;-58
2023/10/12 02:25:26;;;;;;;0.00;0.00;;;13.70;99.90;;;;;;5093117;28;20279;-59
2023/10/12 02:27:56;;;;;;;0.00;0.00;;;13.60;99.90;;;;;;5093107;28;20239;-59
2023/10/12 02:30:27;;;;;;;0.00;0.00;;;13.60;99.90;;;;;;5089603;28;20188;-59
2023/10/12 02:33:07;;;;;;;0.00;0.00;;;13.60;99.90;;;;;;5093193;28;20237;-59
2023/10/12 02:35:44;;;;;;;0.00;0.00;;;13.60;99.90;;;;;;5091916;28;20187;-60
2023/10/12 02:38:14;;;;;;;0.32;0.32;;;13.50;99.90;;;;;;5092404;28;20216;-59
2023/10/12 02:40:41;;;;;;;0.00;0.00;;;13.50;99.90;;;;;;5092849;28;20183;-58
2023/10/12 02:43:10;;;;;;;0.00;0.00;;;13.50;99.90;;;;;;5093028;28;20177;-59
2023/10/12 02:45:40;;;;;;;0.00;0.00;;;13.50;99.90;;;;;;5092501;28;20636;-59
2023/10/12 02:48:12;;;;;;;0.00;0.00;;;13.50;99.90;;;;;;5092568;28;20674;-59
2023/10/12 02:50:57;;;;;;;0.00;0.00;;;13.50;99.90;;;;;;5092329;28;20643;-59
2023/10/12 02:53:28;;;;;;;0.00;0.00;;;13.50;99.90;;;;;;5092571;28;20184;-59
2023/10/12 02:55:58;;;;;;;0.00;0.00;;;13.40;99.90;;;;;;5092366;28;20347;-59
2023/10/12 02:58:24;;;;;;;0.00;0.00;;;13.40;99.90;;;;;;5076534;28;20184;-59
2023/10/12 03:00:55;;;;;;;0.00;0.00;;;13.40;99.90;;;;;;5092671;28;20670;-59
2023/10/12 03:06:06;;;;;;;0.00;0.00;;;13.40;99.90;;;;;;5092147;28;20191;-57
2023/10/12 03:08:33;;;;;;;0.00;0.00;;;13.40;99.90;;;;;;5090076;28;20266;-59
2023/10/12 03:13:35;;;;;;;0.00;0.00;;;13.40;99.90;;;;;;5092507;28;20179;-59
2023/10/12 03:16:13;;;;;;;0.00;0.00;;;13.40;99.90;;;;;;5091499;28;20176;-58
2023/10/12 03:18:40;;;;;;;0.00;0.00;;;13.30;99.90;;;;;;5091961;28;20659;-59
2023/10/12 03:21:11;;;;;;;0.00;0.00;;;13.30;99.90;;;;;;5092158;28;20643;-58
2023/10/12 03:23:38;;;;;;;0.00;0.00;;;13.30;99.90;;;;;;5092218;28;20245;-59
2023/10/12 03:26:05;;;;;;;0.10;0.10;;;13.30;99.90;;;;;;5092028;28;20207;-58
2023/10/12 03:28:42;;;;;;;0.00;0.00;;;13.30;99.90;;;;;;5091852;28;20196;-59
2023/10/12 03:31:15;;;;;;;0.63;0.63;;;13.30;99.90;;;;;;5091438;28;20702;-58
2023/10/12 03:33:53;;;;;;;0.00;0.00;;;13.30;99.90;;;;;;5104201;28;20210;-60
2023/10/12 03:36:36;;;;;;;0.20;0.20;;;13.30;99.90;;;;;;5092255;28;20317;-59
2023/10/12 03:44:48;;;;;;;0.00;0.00;;;13.30;99.90;;;;;;5110206;28;20179;-58
2023/10/12 03:47:15;;;;;;;0.00;0.00;;;13.30;99.90;;;;;;5092334;28;20311;-59
2023/10/12 03:49:57;;;;;;;0.00;0.00;;;13.30;99.90;;;;;;5093519;28;20176;-59
2023/10/12 03:52:39;;;;;;;0.00;0.00;;;13.40;99.90;;;;;;5091885;28;20179;-60
2023/10/12 04:13:55;;;;;;;0.00;0.00;;;13.30;99.90;;;;;;5092235;28;20179;-58
2023/10/12 04:21:17;;;;;;;0.00;0.00;;;13.20;99.90;;;;;;5092100;28;20205;-58
2023/10/12 04:23:49;;;;;;;0.00;0.00;;;13.20;99.90;;;;;;5091854;28;20639;-58
2023/10/12 04:28:52;;;;;;;0.00;0.00;;;13.10;99.90;;;;;;5091679;28;20197;-58
2023/10/12 04:31:31;;;;;;;0.00;0.00;;;13.10;99.90;;;;;;5091844;28;20184;-58
2023/10/12 04:34:08;;;;;;;0.00;0.00;;;13.10;99.90;;;;;;5091890;28;20263;-58
2023/10/12 04:36:48;;;;;;;0.00;0.00;;;13.10;99.90;;;;;;5091544;28;20690;-58
2023/10/12 04:39:25;;;;;;;0.55;0.28;;;13.10;99.90;;;;;;5091453;28;20231;-58
2023/10/12 04:47:09;;;;;;;0.00;0.00;;;13.20;99.90;;;;;;5091462;28;20207;-58
2023/10/12 04:54:49;;;;;;;0.00;0.00;;;13.20;99.90;;;;;;5095079;28;20168;-58
2023/10/12 04:57:16;;;;;;;0.00;0.00;;;13.20;99.90;;;;;;5090474;28;20202;-58
2023/10/12 05:09:37;;;;;;;0.00;0.00;;;13.20;99.90;;;;;;5091006;28;20238;-58
2023/10/12 05:12:03;;;;;;;0.17;0.17;;;13.20;99.90;;;;;;5091220;28;20263;-59
2023/10/12 05:14:30;;;;;;;0.03;0.03;;;13.30;99.90;;;;;;5099754;28;20772;-58
2023/10/12 05:16:55;;;;;;;0.00;0.00;;;13.20;99.90;;;;;;5111248;28;20649;-58
2023/10/12 05:19:21;;;;;;;0.00;0.00;;;13.20;99.90;;;;;;5111285;28;20175;-58
2023/10/12 05:21:46;;;;;;;0.00;0.00;;;13.20;99.90;;;;;;5111456;28;20172;-58
2023/10/12 05:24:12;;;;;;;0.00;0.00;;;13.20;99.90;;;;;;5106137;28;20176;-58
2023/10/12 05:26:38;;;;;;;0.00;0.00;;;13.20;99.90;;;;;;5090344;28;20206;-58
2023/10/12 05:31:57;;;;;;;0.30;0.30;;;13.20;99.90;;;;;;5110496;28;20209;-58
2023/10/12 05:34:32;;;;;;;0.00;0.00;;;13.20;99.90;;;;;;5088790;28;20183;-59
2023/10/12 05:37:17;;;;;;;0.00;0.00;;;13.30;99.90;;;;;;5091951;28;20263;-58
2023/10/12 05:39:46;;;;;;;0.10;0.10;;;13.30;99.90;;;;;;5090473;28;20694;-58
2023/10/12 05:42:14;;;;;;;0.00;0.00;;;13.30;99.90;;;;;;5115232;28;21000;-58
2023/10/12 05:44:42;;;;;;;0.10;0.10;;;13.30;99.90;;;;;;5101001;28;20186;-59
2023/10/12 05:47:11;;;;;;;0.00;0.00;;;13.30;99.90;;;;;;5094355;28;20215;-58
2023/10/12 05:49:37;;;;;;;0.00;0.00;;;13.30;99.90;;;;;;5094227;28;20172;-59
2023/10/12 05:52:05;;;;;;;0.00;0.00;;;13.40;99.90;;;;;;5094021;28;20223;-58
2023/10/12 05:54:31;;;;;;;0.00;0.00;;;13.40;99.90;;;;;;5094230;28;20180;-58
2023/10/12 05:56:56;;;;;;;0.00;0.00;;;13.40;99.90;;;;;;5102706;28;20695;-58
2023/10/12 05:59:24;;;;;;;0.00;0.00;;;13.50;99.90;;;;;;5114536;28;20176;-59
2023/10/12 06:01:50;;;;;;;0.13;0.13;;;13.50;99.90;;;;;;5095703;28;20214;-59
2023/10/12 06:04:16;;;;;;;0.00;0.00;;;13.50;99.90;;;;;;5095587;28;20562;-60
2023/10/12 06:06:42;;;;;;;0.00;0.00;;;13.60;99.90;;;;;;5095661;28;20233;-59
2023/10/12 06:09:12;;;;;;;0.10;0.10;;;13.60;99.90;;;;;;5105889;28;20263;-59
2023/10/12 06:11:46;;;;;;;0.00;0.00;;;13.60;99.90;;;;;;5108385;28;20163;-60
2023/10/12 06:14:14;;;;;;;0.00;0.00;;;13.70;99.90;;;;;;5113708;28;20201;-58
2023/10/12 06:16:40;;;;;;;0.03;0.03;;;13.70;99.90;;;;;;5094754;28;20259;-59
2023/10/12 06:19:28;;;;;;;0.00;0.00;;;13.80;99.90;;;;;;5095028;28;20164;-58
2023/10/12 06:22:13;;;;;;;0.00;0.00;;;13.80;99.90;;;;;;5094089;28;20174;-57
2023/10/12 06:24:41;;;;;;;0.00;0.00;;;13.90;99.90;;;;;;5095584;28;20168;-59
2023/10/12 06:29:55;;;;;;;0.00;0.00;;;14.10;99.90;;;;;;5113819;28;20167;-59
2023/10/12 06:32:32;;;;;;;0.10;0.10;;;14.10;99.90;;;;;;5113840;28;20326;-59
2023/10/12 06:37:49;;;;;;;0.00;0.00;;;14.30;99.90;;;;;;5113675;28;20171;-59
2023/10/12 06:45:48;;;;;;;0.00;0.00;;;14.50;99.90;;;;;;5076502;28;20184;-59
2023/10/12 06:51:02;;;;;;;0.00;0.00;;;14.50;99.90;;;;;;5071239;28;20177;-59
2023/10/12 06:53:33;;;;;;;1.33;1.10;;;14.60;99.90;;;;;;5072936;28;20197;-59
2023/10/12 06:56:13;;;;;;;0.28;0.28;;;14.60;99.90;;;;;;5072014;28;20177;-59
2023/10/12 06:58:38;;;;;;;0.00;0.00;;;14.70;99.90;;;;;;5072902;28;20179;-59
2023/10/12 07:01:18;;;;;;;0.05;0.05;;;14.80;99.90;;;;;;5072323;28;20267;-59
2023/10/12 07:03:48;;;;;;;0.00;0.00;;;14.90;99.90;;;;;;5071928;28;20196;-59
2023/10/12 07:06:15;;;;;;;0.00;0.00;;;14.90;99.90;;;;;;5072468;28;20188;-59
2023/10/12 07:08:42;;;;;;;0.00;0.00;;;15.00;99.90;;;;;;5072338;28;20283;-58
2023/10/12 07:11:11;;;;;;;0.00;0.00;;;15.10;99.90;;;;;;5072326;28;20575;-59
2023/10/12 07:13:40;;;;;;;0.43;0.43;;;15.20;99.90;;;;;;5072004;28;20268;-59
2023/10/12 07:16:06;;;;;;;1.35;1.25;;;15.20;99.90;;;;;;5072084;28;20173;-60
2023/10/12 07:18:35;;;;;;;0.00;0.00;;;15.30;99.90;;;;;;5072248;28;20181;-60
2023/10/12 07:21:05;;;;;;;0.25;0.25;;;15.50;99.90;;;;;;5071911;28;20222;-58
2023/10/12 07:23:36;;;;;;;0.00;0.00;;;15.60;99.90;;;;;;5072333;28;20180;-59
2023/10/12 07:26:12;;;;;;;0.00;0.00;;;15.80;99.90;;;;;;5071565;28;20189;-58
2023/10/12 07:28:39;;;;;;;0.00;0.00;;;15.90;99.90;;;;;;5071822;28;20220;-58
2023/10/12 07:33:52;;;;;;;0.00;0.00;;;16.10;99.90;;;;;;5071926;28;20180;-60
2023/10/12 07:36:18;;;;;;;1.35;0.90;;;16.30;99.90;;;;;;5056117;28;20176;-59
2023/10/12 07:38:55;;;;;;;0.00;0.00;;;16.30;99.90;;;;;;5085853;28;20216;-60
2023/10/12 07:41:28;;;;;;;0.10;0.10;;;16.40;99.90;;;;;;5109787;28;20172;-58
2023/10/12 07:43:54;;;;;;;0.63;0.60;;;16.40;99.90;;;;;;5092848;28;20657;-58
2023/10/12 07:46:25;;;;;;;0.00;0.00;;;16.50;99.90;;;;;;5092027;28;20180;-59
2023/10/12 07:48:51;;;;;;;0.00;0.00;;;16.50;99.90;;;;;;5092315;28;20172;-58
2023/10/12 07:51:26;;;;;;;0.00;0.00;;;16.50;99.90;;;;;;5092190;28;20180;-58
2023/10/12 07:54:00;;;;;;;0.10;0.10;;;16.50;99.90;;;;;;5092090;28;20176;-58
2023/10/12 07:56:34;;;;;;;0.00;0.00;;;16.60;99.90;;;;;;5091541;28;20180;-58
2023/10/12 07:59:00;;;;;;;0.00;0.00;;;16.60;99.90;;;;;;5091724;28;20225;-58
2023/10/12 08:03:58;;;;;;;0.00;0.00;;;16.80;99.90;;;;;;5091731;28;20173;-58
2023/10/12 08:06:59;;;;;;;0.00;0.00;;;16.90;99.90;;;;;;5091813;28;20183;-58
2023/10/12 08:11:51;;;;;;;0.00;0.00;;;17.10;99.90;;;;;;5091840;28;20573;-58
2023/10/12 08:19:39;;;;;;;0.00;0.00;;;17.50;99.90;;;;;;5091969;28;20183;-59
2023/10/12 08:22:14;;;;;;;0.00;0.00;;;17.70;99.90;;;;;;5091873;28;20259;-57
2023/10/12 08:24:39;;;;;;;0.00;0.00;;;17.80;99.90;;;;;;5091486;28;20175;-58
2023/10/12 08:27:06;;;;;;;0.00;0.00;;;17.90;99.90;;;;;;5091472;28;20211;-57
2023/10/12 08:32:11;;;;;;;0.20;0.08;;;18.10;99.90;;;;;;5091681;28;20191;-58
2023/10/12 08:37:26;;;;;;;0.00;0.00;;;18.20;99.90;;;;;;5091474;28;20172;-58
2023/10/12 08:42:55;;;;;;;0.00;0.00;;;18.40;99.90;;;;;;5091584;28;20180;-58
2023/10/12 08:45:23;;;;;;;0.00;0.00;;;18.50;99.90;;;;;;5091137;28;20732;-58
2023/10/12 08:47:50;;;;;;;0.00;0.00;;;18.60;99.90;;;;;;5091541;28;20212;-58
2023/10/12 08:52:50;;;;;;;0.00;0.00;;;18.90;99.90;;;;;;5091395;28;20180;-58
2023/10/12 08:55:19;;;;;;;0.00;0.00;;;19.00;99.90;;;;;;5091504;28;20248;-58
2023/10/12 08:58:11;;;;;;;0.00;0.00;;;19.20;99.90;;;;;;5091267;28;20179;-59
2023/10/12 09:00:45;;;;;;;0.00;0.00;;;19.30;99.90;;;;;;5091387;28;20241;-58
2023/10/12 09:05:54;;;;;;;0.10;0.10;;;19.50;99.90;;;;;;5091226;28;20171;-58
2023/10/12 09:10:51;;;;;;;0.50;0.50;;;19.80;99.90;;;;;;5091275;28;20190;-58
2023/10/12 09:13:18;;;;;;;0.00;0.00;;;19.90;99.90;;;;;;5091273;28;20180;-58
2023/10/12 09:15:54;;;;;;;0.00;0.00;;;20.10;99.90;;;;;;5093912;28;20168;-58
2023/10/12 09:18:21;;;;;;;0.00;0.00;;;20.20;99.90;;;;;;5095031;28;20187;-58
2023/10/12 09:31:14;;;;;;;0.00;0.00;;;20.90;99.90;;;;;;5094947;28;20178;-58
2023/10/12 09:36:26;;;;;;;0.00;0.00;;;21.20;99.90;;;;;;5094808;28;20172;-58
2023/10/12 09:38:56;;;;;;;0.00;0.00;;;21.30;99.90;;;;;;5094528;28;20448;-58
2023/10/12 09:41:28;;;;;;;0.08;0.08;;;21.40;99.90;;;;;;5094656;28;20234;-58
2023/10/12 09:43:56;;;;;;;0.00;0.00;;;21.50;99.90;;;;;;5094594;28;20184;-58
2023/10/12 09:46:27;;;;;;;0.00;0.00;;;21.60;99.90;;;;;;5094336;28;20267;-58
2023/10/12 09:49:02;;;;;;;0.00;0.00;;;21.70;99.90;;;;;;5094621;28;20199;-59
2023/10/12 09:51:33;;;;;;;0.10;0.10;;;21.80;99.60;;;;;;5094447;28;20179;-58
2023/10/12 09:54:09;;;;;;;0.00;0.00;;;21.80;99.80;;;;;;5094557;28;20191;-58
2023/10/12 09:56:44;;;;;;;0.00;0.00;;;21.80;99.90;;;;;;5094568;28;20174;-58
2023/10/12 09:59:14;;;;;;;0.00;0.00;;;21.90;99.70;;;;;;5094513;28;20176;-57
2023/10/12 10:07:14;;;;;;;0.08;0.08;;;22.10;98.80;;;;;;5094088;28;20208;-58
2023/10/12 10:09:45;;;;;;;0.00;0.00;;;22.30;99.10;;;;;;5093920;28;20176;-58
2023/10/12 10:12:12;;;;;;;0.00;0.00;;;22.40;99.00;;;;;;5094103;28;20184;-58
2023/10/12 10:14:44;;;;;;;0.00;0.00;;;22.60;98.60;;;;;;5092642;28;20606;-58
2023/10/12 10:17:14;;;;;;;0.00;0.00;;;22.80;97.30;;;;;;5093970;28;20193;-58
2023/10/12 10:19:43;;;;;;;0.00;0.00;;;22.90;97.70;;;;;;5093595;28;20176;-58
2023/10/12 10:22:14;;;;;;;0.00;0.00;;;23.00;97.60;;;;;;5093932;28;20225;-58
2023/10/12 10:25:05;;;;;;;0.00;0.00;;;23.10;97.80;;;;;;5093736;28;20176;-58
2023/10/12 10:27:37;;;;;;;0.10;0.10;;;23.10;97.70;;;;;;5093221;28;20256;-59
2023/10/12 10:30:25;;;;;;;0.00;0.00;;;23.10;97.60;;;;;;5093678;28;20186;-59
2023/10/12 10:33:24;;;;;;;0.10;0.10;;;23.20;97.60;;;;;;5093502;28;20210;-58
2023/10/12 10:35:57;;;;;;;0.00;0.00;;;23.30;97.60;;;;;;5093604;28;20206;-59
2023/10/12 10:38:30;;;;;;;0.00;0.00;;;23.40;97.10;;;;;;5093223;28;20238;-59
2023/10/12 10:41:05;;;;;;;0.05;0.03;;;23.60;96.90;;;;;;5093564;28;20176;-58
2023/10/12 10:43:37;;;;;;;0.00;0.00;;;23.80;96.70;;;;;;5093249;28;20241;-59
2023/10/12 10:46:06;;;;;;;0.00;0.00;;;24.00;96.50;;;;;;5080748;28;20197;-59
2023/10/12 10:48:34;;;;;;;0.30;0.30;;;24.20;96.20;;;;;;5072924;28;20303;-59
2023/10/12 10:51:04;;;;;;;0.03;0.03;;;24.30;95.90;;;;;;5072977;28;20173;-59
2023/10/12 10:53:36;;;;;;;0.10;0.10;;;24.40;95.40;;;;;;5073032;28;20226;-59
2023/10/12 10:56:15;;;;;;;0.03;0.03;;;24.50;95.40;;;;;;5072922;28;20183;-59
2023/10/12 10:58:41;;;;;;;0.00;0.00;;;24.60;95.20;;;;;;5072787;28;20234;-60
2023/10/12 11:01:12;;;;;;;0.00;0.00;;;24.70;95.50;;;;;;5072868;28;20598;-59
2023/10/12 11:03:46;;;;;;;0.22;0.22;;;24.70;95.50;;;;;;5087959;28;20180;-59
2023/10/12 11:06:21;;;;;;;0.00;0.00;;;24.70;95.30;;;;;;5072821;28;20211;-59
2023/10/12 11:09:02;;;;;;;0.00;0.00;;;24.70;94.70;;;;;;5072519;28;20263;-59
2023/10/12 11:11:37;;;;;;;0.00;0.00;;;24.70;94.30;;;;;;5072492;28;20173;-59
2023/10/12 11:14:04;;;;;;;0.00;0.00;;;24.70;94.50;;;;;;5072584;28;20270;-59
2023/10/12 11:16:29;;;;;;;0.00;0.00;;;24.70;94.30;;;;;;5072472;28;20664;-59
2023/10/12 11:18:57;;;;;;;0.00;0.00;;;24.70;94.00;;;;;;5072549;28;20206;-59
2023/10/12 11:21:25;;;;;;;0.15;0.15;;;24.30;93.50;;;;;;5072376;28;20251;-59
2023/10/12 11:24:03;;;;;;;0.00;0.00;;;24.00;93.20;;;;;;5072217;28;20632;-60
2023/10/12 11:26:38;;;;;;;0.00;0.00;;;23.80;93.40;;;;;;5072289;28;20177;-59
2023/10/12 11:29:11;;;;;;;0.00;0.00;;;23.50;93.60;;;;;;5072379;28;20180;-58
2023/10/12 11:31:37;;;;;;;0.03;0.03;;;23.40;93.30;;;;;;5072125;28;20263;-58
2023/10/12 11:34:07;;;;;;;0.20;0.20;;;23.30;93.40;;;;;;5072968;28;20212;-58
2023/10/12 11:36:35;;;;;;;0.00;0.00;;;23.10;93.30;;;;;;5073274;28;20751;-59
2023/10/12 11:39:18;;;;;;;0.00;0.00;;;23.00;93.30;;;;;;5072269;28;20243;-59
2023/10/12 11:42:19;;;;;;;0.00;0.00;;;23.10;93.60;;;;;;5071508;28;20181;-59
2023/10/12 11:44:46;;;;;;;0.00;0.00;;;23.20;93.60;;;;;;5049673;28;20188;-58
2023/10/12 11:47:37;;;;;;;0.00;0.00;;;23.10;93.60;;;;;;5067804;28;20212;-58
2023/10/12 11:50:04;;;;;;;0.00;0.00;;;23.00;93.40;;;;;;5071529;28;20600;-59
2023/10/12 11:52:34;;;;;;;0.00;0.00;;;22.90;93.70;;;;;;5072195;28;20255;-58
2023/10/12 11:55:18;;;;;;;0.00;0.00;;;23.00;93.80;;;;;;5071160;28;20189;-58
2023/10/12 11:57:45;;;;;;;0.00;0.00;;;23.00;93.80;;;;;;5071823;28;20177;-58
2023/10/12 12:00:29;;;;;;;0.00;0.00;;;23.00;93.50;;;;;;5071836;28;20222;-58
2023/10/12 12:02:59;;;;;;;0.00;0.00;;;23.00;93.40;;;;;;5071859;28;20183;-57
2023/10/12 12:05:29;;;;;;;0.00;0.00;;;22.90;93.50;;;;;;5071696;28;20188;-58
2023/10/12 12:07:56;;;;;;;0.10;0.10;;;23.00;93.50;;;;;;5071665;28;20220;-58
2023/10/12 12:10:26;;;;;;;0.10;0.10;;;23.00;93.30;;;;;;5071650;28;20542;-59
2023/10/12 12:12:52;;;;;;;0.00;0.00;;;23.00;93.40;;;;;;5070466;28;20177;-58
2023/10/12 12:15:19;;;;;;;0.00;0.00;;;23.00;93.20;;;;;;5071528;28;20188;-58
2023/10/12 12:17:46;;;;;;;0.00;0.00;;;23.00;93.30;;;;;;5071500;28;20254;-59
2023/10/12 12:20:21;;;;;;;0.08;0.08;;;22.80;92.60;;;;;;5071481;28;20260;-58
2023/10/12 12:22:46;;;;;;;0.10;0.10;;;22.80;92.60;;;;;;5071511;28;20188;-59
2023/10/12 12:25:31;;;;;;;0.00;0.00;;;22.80;93.10;;;;;;5071504;28;20215;-58
2023/10/12 12:28:02;;;;;;;0.00;0.00;;;22.80;92.90;;;;;;5071413;28;20212;-58
2023/10/12 12:30:32;;;;;;;0.00;0.00;;;22.70;92.80;;;;;;5071406;28;20520;-59
2023/10/12 12:33:00;;;;;;;0.00;0.00;;;22.60;92.80;;;;;;5071321;28;20750;-58
2023/10/12 12:35:28;;;;;;;0.22;0.22;;;22.60;93.40;;;;;;5071295;28;20539;-59
2023/10/12 12:38:05;;;;;;;0.00;0.00;;;22.60;92.90;;;;;;5071080;28;20188;-58
2023/10/12 12:40:38;;;;;;;0.35;0.10;;;22.50;93.10;;;;;;5071394;28;20176;-58
2023/10/12 12:43:10;;;;;;;0.00;0.00;;;22.50;93.30;;;;;;5071270;28;20230;-58
2023/10/12 12:45:35;;;;;;;0.00;0.00;;;22.50;93.20;;;;;;5071141;28;20187;-58
2023/10/12 12:48:04;;;;;;;0.00;0.00;;;22.40;93.20;;;;;;5071181;28;20216;-59
2023/10/12 12:50:29;;;;;;;0.30;0.30;;;22.40;93.20;;;;;;5075340;28;20255;-59
2023/10/12 12:52:57;;;;;;;0.10;0.10;;;22.40;93.20;;;;;;5075325;28;20184;-59
2023/10/12 12:55:27;;;;;;;0.00;0.00;;;22.40;93.50;;;;;;5074977;28;20769;-59
2023/10/12 12:57:56;;;;;;;0.00;0.00;;;22.40;93.50;;;;;;5075262;28;20593;-59
2023/10/12 13:00:22;;;;;;;0.00;0.00;;;22.40;93.80;;;;;;5074967;28;20185;-59
2023/10/12 13:02:48;;;;;;;0.00;0.00;;;22.40;94.00;;;;;;5075016;28;20644;-58
2023/10/12 13:05:14;;;;;;;0.10;0.10;;;22.40;93.70;;;;;;5075138;28;20192;-58
2023/10/12 13:07:40;;;;;;;0.63;0.63;;;22.40;94.20;;;;;;5075005;28;20200;-59
2023/10/12 13:10:07;;;;;;;0.00;0.00;;;22.40;94.10;;;;;;5075004;28;20260;-58
2023/10/12 13:12:33;;;;;;;0.00;0.00;;;22.40;94.30;;;;;;5074729;28;20200;-58
2023/10/12 13:15:01;;;;;;;0.00;0.00;;;22.40;94.40;;;;;;5074654;28;20203;-58
2023/10/12 13:17:30;;;;;;;0.00;0.00;;;22.40;94.40;;;;;;5074710;28;20177;-59
2023/10/12 13:19:59;;;;;;;0.00;0.00;;;22.40;94.60;;;;;;5074710;28;20259;-59
2023/10/12 13:22:26;;;;;;;0.00;0.00;;;22.40;94.60;;;;;;5074728;28;20207;-59
2023/10/12 13:24:56;;;;;;;0.00;0.00;;;22.40;94.40;;;;;;5074677;28;20701;-59
2023/10/12 13:27:32;;;;;;;0.00;0.00;;;22.50;94.40;;;;;;5074527;28;20220;-59
2023/10/12 13:30:09;;;;;;;0.00;0.00;;;22.60;94.70;;;;;;5074663;28;20177;-59
2023/10/12 13:32:35;;;;;;;0.30;0.30;;;22.70;94.50;;;;;;5074414;28;20211;-59
2023/10/12 13:35:17;;;;;;;0.00;0.00;;;22.70;94.30;;;;;;5074441;28;20177;-59
2023/10/12 13:37:44;;;;;;;0.00;0.00;;;22.80;94.50;;;;;;5074109;28;20190;-59
2023/10/12 13:40:15;;;;;;;0.10;0.10;;;22.90;94.50;;;;;;5074421;28;20781;-58
2023/10/12 13:42:41;;;;;;;0.00;0.00;;;23.00;94.60;;;;;;5074278;28;20215;-58
2023/10/12 13:45:07;;;;;;;0.00;0.00;;;23.10;94.50;;;;;;5091059;28;20234;-59
2023/10/12 13:47:33;;;;;;;0.10;0.10;;;23.10;94.30;;;;;;5094326;28;20756;-59
2023/10/12 13:49:58;;;;;;;0.03;0.03;;;23.10;94.40;;;;;;5094302;28;20187;-58
2023/10/12 13:52:24;;;;;;;0.00;0.00;;;23.00;93.90;;;;;;5093238;28;20172;-59
2023/10/12 13:54:52;;;;;;;0.00;0.00;;;23.10;94.20;;;;;;5094479;28;20249;-58
2023/10/12 13:57:17;;;;;;;0.03;0.03;;;23.20;94.10;;;;;;5094301;28;20650;-58
2023/10/12 13:59:47;;;;;;;0.08;0.00;;;23.30;93.80;;;;;;5093973;28;20180;-59
2023/10/12 14:02:13;;;;;;;0.52;0.52;;;23.40;93.90;;;;;;5094116;28;20176;-59
2023/10/12 14:04:40;;;;;;;0.00;0.00;;;23.40;93.70;;;;;;5094008;28;20695;-58
2023/10/12 14:07:07;;;;;;;0.05;0.05;;;23.40;93.70;;;;;;5094069;28;20204;-58
2023/10/12 14:09:33;;;;;;;0.03;0.03;;;23.40;94.00;;;;;;5094135;28;20192;-58
2023/10/12 14:11:58;;;;;;;0.00;0.00;;;23.50;93.80;;;;;;5094055;28;20191;-58
2023/10/12 14:14:24;;;;;;;0.00;0.00;;;23.50;93.70;;;;;;5092714;28;20180;-59
2023/10/12 14:16:51;;;;;;;0.00;0.00;;;23.50;93.80;;;;;;5093911;28;20176;-58
2023/10/12 14:19:22;;;;;;;0.00;0.00;;;23.50;93.60;;;;;;5093879;28;20180;-59
2023/10/12 14:21:51;;;;;;;0.00;0.00;;;23.50;93.70;;;;;;5093854;28;20632;-58
2023/10/12 14:24:17;;;;;;;0.22;0.22;;;23.40;93.60;;;;;;5093756;28;20271;-59
2023/10/12 14:26:44;;;;;;;0.00;0.00;;;23.40;93.80;;;;;;5092736;28;20258;-58
2023/10/12 14:29:10;;;;;;;0.00;0.00;;;23.40;94.20;;;;;;5093273;28;20184;-58
2023/10/12 14:31:35;;;;;;;0.00;0.00;;;23.40;93.80;;;;;;5087307;28;20222;-58
2023/10/12 14:34:02;;;;;;;0.00;0.00;;;23.40;93.70;;;;;;5098117;28;20171;-57
2023/10/12 14:36:27;;;;;;;0.00;0.00;;;23.40;94.00;;;;;;5113771;28;20259;-58
2023/10/12 14:38:55;;;;;;;0.22;0.22;;;23.30;93.70;;;;;;5102652;28;20629;-58
2023/10/12 14:41:25;;;;;;;0.00;0.00;;;23.30;93.90;;;;;;5093228;28;20207;-58
2023/10/12 14:43:50;;;;;;;0.00;0.00;;;23.30;94.30;;;;;;5093313;28;20662;-59
2023/10/12 14:46:19;;;;;;;0.00;0.00;;;23.40;94.10;;;;;;5093311;28;20176;-58
2023/10/12 14:48:49;;;;;;;0.00;0.00;;;23.40;94.10;;;;;;5088224;28;20932;-58
2023/10/12 14:51:17;;;;;;;0.00;0.00;;;23.40;94.40;;;;;;5088770;28;20181;-58
2023/10/12 14:53:47;;;;;;;0.17;0.08;;;23.40;94.50;;;;;;5084324;28;20237;-58
2023/10/12 14:56:14;;;;;;;0.00;0.00;;;23.30;94.40;;;;;;5083960;28;20180;-59
2023/10/12 14:58:40;;;;;;;0.00;0.00;;;23.30;94.40;;;;;;5090908;28;20269;-58
2023/10/12 15:01:17;;;;;;;0.00;0.00;;;23.10;94.50;;;;;;5105265;28;20184;-58
2023/10/12 15:03:45;;;;;;;0.00;0.00;;;23.10;94.50;;;;;;5112622;28;20721;-59
2023/10/12 15:06:12;;;;;;;0.00;0.00;;;22.90;94.50;;;;;;5092249;28;20184;-63
2023/10/12 15:08:38;;;;;;;0.00;0.00;;;22.80;95.00;;;;;;5092250;28;20273;-60
2023/10/12 15:11:07;;;;;;;0.00;0.00;;;22.80;95.10;;;;;;5092468;28;20176;-59
2023/10/12 15:13:37;;;;;;;0.15;0.15;;;22.70;95.30;;;;;;5091105;28;20245;-62
2023/10/12 15:16:12;;;;;;;0.00;0.00;;;22.60;95.40;;;;;;5093047;28;20191;-63